Time;durP1;ratioP1;P1;durP2;ratioP2;P2;SDS_P1;SDS_P2;PMS_P1;PMS_P2;Temp;Humidity;BMP_temperature;BMP_pressure;BME280_temperature;BME280_humidity;BME280_pressure;Samples;Min_cycle;Max_cycle;Signal;HPM_P1;HPM_P2
2021/05/13 00:01:05;;;;;;;5.63;1.87;;;;;;;12.88;61.24;100366.91;5056769;28;20403;-71
2021/05/13 00:03:35;;;;;;;4.87;2.20;;;;;;;12.83;61.88;100366.41;5084151;28;20196;-71
2021/05/13 00:06:03;;;;;;;3.87;1.90;;;;;;;12.80;61.72;100374.75;5060014;28;20497;-71
2021/05/13 00:08:32;;;;;;;5.30;1.70;;;;;;;12.75;62.04;100378.69;5054992;28;20683;-71
2021/05/13 00:11:05;;;;;;;3.83;2.00;;;;;;;12.68;62.28;100372.09;5055472;28;20234;-71
2021/05/13 00:13:35;;;;;;;2.90;1.90;;;;;;;12.63;61.60;100374.31;5051332;28;20223;-71
2021/05/13 00:16:03;;;;;;;8.50;2.00;;;;;;;12.61;61.75;100378.13;5058171;28;20255;-71
2021/05/13 00:18:32;;;;;;;2.43;2.00;;;;;;;12.58;61.26;100373.00;5053220;28;20201;-71
2021/05/13 00:21:00;;;;;;;6.43;1.50;;;;;;;12.55;60.99;100371.41;5051699;28;20665;-71
2021/05/13 00:23:28;;;;;;;8.70;2.10;;;;;;;12.53;61.45;100362.56;5056549;28;20193;-68
2021/05/13 00:25:57;;;;;;;3.67;1.83;;;;;;;12.37;60.92;100332.50;5053990;28;20211;-71
2021/05/13 00:28:25;;;;;;;2.03;1.80;;;;;;;12.47;61.19;100354.16;5052679;28;20202;-71
2021/05/13 00:30:53;;;;;;;1.97;1.77;;;;;;;12.36;61.43;100337.03;5053182;28;20282;-71
2021/05/13 00:33:20;;;;;;;3.70;1.97;;;;;;;12.37;61.54;100341.44;5054103;28;20735;-71
2021/05/13 00:35:48;;;;;;;6.13;1.70;;;;;;;12.37;61.28;100354.06;5051398;28;20685;-72
2021/05/13 00:38:16;;;;;;;4.07;2.13;;;;;;;12.31;61.91;100347.34;5055767;28;20213;-71
2021/05/13 00:40:43;;;;;;;4.43;1.60;;;;;;;12.27;61.93;100353.09;5056123;28;20197;-71
2021/05/13 00:43:12;;;;;;;3.33;2.10;;;;;;;12.19;61.39;100339.38;5049515;28;20198;-68
2021/05/13 00:45:41;;;;;;;2.93;1.73;;;;;;;12.18;61.84;100353.81;5058388;28;20243;-71
2021/05/13 00:48:14;;;;;;;2.90;1.97;;;;;;;12.11;62.17;100348.94;5054555;28;20602;-72
2021/05/13 00:50:42;;;;;;;2.00;1.80;;;;;;;12.06;62.02;100350.28;5060676;28;20526;-71
2021/05/13 00:53:11;;;;;;;4.53;2.13;;;;;;;12.05;61.95;100349.44;5056860;28;20217;-71
2021/05/13 00:55:39;;;;;;;3.93;2.07;;;;;;;11.96;62.28;100343.94;5049866;28;20767;-68
2021/05/13 00:58:08;;;;;;;6.03;2.07;;;;;;;11.97;61.67;100346.50;5054405;28;20262;-68
2021/05/13 01:00:45;;;;;;;3.57;1.70;;;;;;;11.98;61.69;100342.84;5052512;28;20288;-68
2021/05/13 01:03:12;;;;;;;5.07;1.97;;;;;;;11.94;61.30;100341.38;5062214;28;20652;-68
2021/05/13 01:05:40;;;;;;;4.17;2.00;;;;;;;11.92;61.10;100346.00;5054202;28;20197;-68
2021/05/13 01:08:08;;;;;;;3.87;1.90;;;;;;;11.90;61.16;100345.25;5057335;28;21085;-68
2021/05/13 01:10:37;;;;;;;2.80;1.83;;;;;;;11.87;61.94;100345.50;5056545;28;20189;-68
2021/05/13 01:13:08;;;;;;;3.80;1.67;;;;;;;11.81;61.54;100346.00;5052272;28;20240;-68
2021/05/13 01:15:40;;;;;;;3.00;1.90;;;;;;;11.77;62.08;100342.66;5052656;28;20210;-68
2021/05/13 01:18:14;;;;;;;4.53;2.00;;;;;;;11.73;62.08;100345.72;5052719;28;20201;-68
2021/05/13 01:20:42;;;;;;;7.40;1.80;;;;;;;11.68;61.86;100350.63;5060397;28;20201;-68
2021/05/13 01:23:13;;;;;;;4.13;1.97;;;;;;;11.47;62.39;100310.97;5062083;28;20197;-71
2021/05/13 01:25:46;;;;;;;2.53;1.63;;;;;;;11.59;62.37;100336.03;5055000;28;20287;-71
2021/05/13 01:28:14;;;;;;;5.03;1.90;;;;;;;11.52;62.35;100343.75;5057277;28;20220;-71
2021/05/13 01:30:43;;;;;;;4.43;2.00;;;;;;;11.42;62.73;100345.44;5067054;28;20388;-68
2021/05/13 01:33:12;;;;;;;3.97;2.03;;;;;;;11.41;62.58;100348.25;5063593;28;20241;-71
2021/05/13 01:35:40;;;;;;;4.80;1.73;;;;;;;11.32;63.19;100332.81;5055329;28;20195;-72
2021/05/13 01:38:10;;;;;;;2.73;1.73;;;;;;;11.34;62.48;100347.88;5054075;28;20205;-71
2021/05/13 01:40:40;;;;;;;7.73;2.03;;;;;;;11.33;62.35;100346.16;5069317;28;20261;-72
2021/05/13 01:43:08;;;;;;;2.70;2.13;;;;;;;11.32;62.14;100346.25;5071231;28;20186;-71
2021/05/13 01:45:36;;;;;;;3.07;1.80;;;;;;;11.30;62.66;100341.00;5054329;28;20198;-71
2021/05/13 01:48:05;;;;;;;5.67;1.87;;;;;;;11.28;62.41;100351.00;5056848;28;20664;-71
2021/05/13 01:50:35;;;;;;;2.97;1.80;;;;;;;11.27;62.97;100335.00;5057572;28;20207;-71
2021/05/13 01:53:06;;;;;;;3.30;1.90;;;;;;;11.23;62.98;100342.47;5050122;28;20220;-68
2021/05/13 01:55:34;;;;;;;4.03;2.10;;;;;;;11.17;63.17;100335.72;5057974;28;20671;-71
2021/05/13 01:58:03;;;;;;;4.20;1.80;;;;;;;11.15;62.93;100336.81;5057691;28;20203;-72
2021/05/13 02:00:32;;;;;;;4.83;2.07;;;;;;;11.11;63.27;100335.34;5056718;28;20210;-68
2021/05/13 02:03:00;;;;;;;4.50;1.80;;;;;;;11.10;63.11;100329.13;5050409;28;20207;-68
2021/05/13 02:05:27;;;;;;;3.30;1.77;;;;;;;11.10;62.45;100334.50;5059921;28;20198;-68
2021/05/13 02:07:55;;;;;;;3.33;2.07;;;;;;;10.92;62.91;100294.72;5057436;28;20204;-68
2021/05/13 02:10:23;;;;;;;2.00;1.80;;;;;;;11.12;62.03;100332.53;5059019;28;20210;-68
2021/05/13 02:12:50;;;;;;;3.27;2.00;;;;;;;10.75;62.36;100267.34;5047559;28;20340;-68
2021/05/13 02:15:20;;;;;;;4.60;1.90;;;;;;;11.09;62.30;100316.66;5040891;28;20194;-68
2021/05/13 02:17:50;;;;;;;5.07;2.20;;;;;;;10.85;62.21;100276.41;5050521;28;20209;-68
2021/05/13 02:20:20;;;;;;;4.60;2.00;;;;;;;11.13;61.90;100322.66;5052248;28;21294;-68
2021/05/13 02:22:48;;;;;;;1177.27;665.53;;;;;;;11.11;62.31;100324.59;5052436;28;20205;-68
2021/05/13 02:25:15;;;;;;;90.47;53.43;;;;;;;11.02;62.97;100314.53;5056575;28;20220;-68
2021/05/13 02:27:43;;;;;;;10.90;8.20;;;;;;;11.10;62.53;100317.50;5057938;28;20201;-68
2021/05/13 02:30:12;;;;;;;10.30;5.73;;;;;;;11.10;62.86;100310.31;5051930;28;20199;-68
2021/05/13 02:32:42;;;;;;;5.90;3.60;;;;;;;11.11;62.46;100314.69;5050933;28;20286;-69
2021/05/13 02:35:12;;;;;;;7.23;2.97;;;;;;;11.17;63.63;100308.00;5053811;28;20195;-68
2021/05/13 02:37:40;;;;;;;11.57;4.63;;;;;;;11.20;62.79;100313.97;5054253;28;20190;-68
2021/05/13 02:40:09;;;;;;;3.77;2.60;;;;;;;11.12;64.32;100310.19;5081305;27;20204;-68
2021/05/13 02:42:37;;;;;;;5.40;2.70;;;;;;;11.05;63.38;100317.00;5057300;28;20648;-68
2021/05/13 02:45:06;;;;;;;3.23;2.57;;;;;;;11.09;62.80;100313.09;5051841;28;20204;-68
2021/05/13 02:47:34;;;;;;;3.60;2.77;;;;;;;11.10;62.50;100312.13;5053709;28;20643;-68
2021/05/13 02:50:03;;;;;;;4.33;3.60;;;;;;;11.11;63.14;100313.84;5053951;28;20246;-68
2021/05/13 02:52:31;;;;;;;6.67;3.07;;;;;;;11.11;63.04;100312.00;5052322;28;20721;-68
2021/05/13 02:54:58;;;;;;;7.37;5.50;;;;;;;11.16;62.55;100303.59;5050578;28;20503;-69
2021/05/13 02:57:26;;;;;;;4.17;2.90;;;;;;;11.15;62.96;100304.56;5051395;28;20195;-68
2021/05/13 02:59:58;;;;;;;4.67;2.43;;;;;;;11.14;64.51;100310.91;5050203;28;20722;-68
2021/05/13 03:02:26;;;;;;;6.03;2.70;;;;;;;11.26;63.12;100306.41;5048105;28;20223;-68
2021/05/13 03:04:54;;;;;;;3.70;2.73;;;;;;;11.39;62.76;100307.19;5054860;28;20237;-68
2021/05/13 03:07:22;;;;;;;4.73;2.70;;;;;;;11.47;61.83;100312.81;5049878;28;20730;-68
2021/05/13 03:09:55;;;;;;;6.63;3.27;;;;;;;11.56;61.89;100309.41;5045401;28;20202;-69
2021/05/13 03:12:23;;;;;;;4.63;3.13;;;;;;;11.72;61.44;100300.97;5052112;28;20255;-68
2021/05/13 03:14:51;;;;;;;5.23;2.97;;;;;;;11.72;62.11;100282.16;5054230;28;20224;-68
2021/05/13 03:17:19;;;;;;;6.10;2.83;;;;;;;12.07;62.20;100304.41;5050633;28;20521;-68
2021/05/13 03:19:52;;;;;;;5.27;3.17;;;;;;;12.29;62.16;100306.22;5053717;28;20231;-68
2021/05/13 03:22:20;;;;;;;4.43;2.77;;;;;;;12.39;63.03;100300.91;5047553;28;20599;-68
2021/05/13 03:24:51;;;;;;;4.80;2.60;;;;;;;12.44;63.72;100301.38;5084857;27;20200;-68
2021/05/13 03:27:37;;;;;;;2.83;2.13;;;;;;;12.39;64.13;100287.47;5049989;28;20193;-68
2021/05/13 03:30:07;;;;;;;3.27;2.60;;;;;;;12.67;64.79;100299.50;5047436;28;20205;-69
2021/05/13 03:32:34;;;;;;;3.90;2.60;;;;;;;12.95;63.67;100295.31;5053768;28;20204;-68
2021/05/13 03:35:03;;;;;;;3.20;2.50;;;;;;;13.16;62.36;100301.56;5045924;28;20252;-68
2021/05/13 03:37:31;;;;;;;3.70;2.37;;;;;;;13.17;61.47;100276.38;5055979;28;20204;-68
2021/05/13 03:40:00;;;;;;;4.93;2.70;;;;;;;13.53;60.45;100295.75;5056999;28;20854;-67
2021/05/13 03:42:28;;;;;;;3.93;2.60;;;;;;;13.60;62.05;100305.00;5050688;28;20206;-68
2021/05/13 03:44:55;;;;;;;8.13;3.30;;;;;;;13.74;61.14;100299.22;5079497;27;20218;-68
2021/05/13 03:47:23;;;;;;;7.17;2.80;;;;;;;13.75;62.50;100300.94;5053408;28;20231;-68
2021/05/13 03:49:51;;;;;;;3.00;2.27;;;;;;;13.92;61.64;100300.31;5049650;28;20201;-68
2021/05/13 03:52:19;;;;;;;5.23;3.40;;;;;;;14.02;61.40;100305.75;5051781;28;20205;-68
2021/05/13 03:54:46;;;;;;;6.30;3.47;;;;;;;14.02;61.99;100313.84;5050856;28;20220;-68
2021/05/13 03:57:15;;;;;;;10.07;3.10;;;;;;;14.11;62.30;100306.78;5055510;28;20674;-68
2021/05/13 03:59:42;;;;;;;6.17;3.50;;;;;;;14.09;63.14;100300.66;5049705;28;20220;-68
2021/05/13 04:02:23;;;;;;;8.40;3.53;;;;;;;14.18;62.99;100299.84;5057561;28;20278;-68
2021/05/13 04:04:50;;;;;;;5.23;3.00;;;;;;;14.15;62.90;100300.13;5050781;28;20229;-68
2021/05/13 04:07:18;;;;;;;7.00;3.47;;;;;;;14.11;64.18;100298.69;5046021;28;20198;-68
2021/05/13 04:09:46;;;;;;;9.10;3.70;;;;;;;14.23;63.21;100302.97;5050192;28;20219;-68
2021/05/13 04:12:15;;;;;;;7.83;3.90;;;;;;;14.31;63.77;100308.53;5048455;28;20737;-69
2021/05/13 04:14:42;;;;;;;12.50;4.43;;;;;;;14.25;63.65;100299.13;5056999;28;20223;-68
2021/05/13 04:17:10;;;;;;;6.50;4.20;;;;;;;13.95;63.32;100237.94;5049100;28;20204;-68
2021/05/13 04:19:38;;;;;;;7.03;4.57;;;;;;;14.26;64.04;100300.00;5048820;28;20196;-71
2021/05/13 04:22:05;;;;;;;12.43;3.97;;;;;;;14.25;64.24;100298.28;5057196;28;20662;-71
2021/05/13 04:24:33;;;;;;;6.47;4.60;;;;;;;14.30;64.55;100294.16;5059869;28;20197;-71
2021/05/13 04:27:01;;;;;;;12.07;4.70;;;;;;;14.35;65.05;100298.28;5064612;28;20650;-72
2021/05/13 04:29:29;;;;;;;11.50;4.37;;;;;;;14.22;65.23;100277.81;5052039;28;20206;-68
2021/05/13 04:31:57;;;;;;;9.80;4.63;;;;;;;14.32;64.74;100283.22;5062748;28;20244;-69
2021/05/13 04:34:25;;;;;;;8.50;4.57;;;;;;;14.42;65.35;100294.91;5061665;28;20787;-71
2021/05/13 04:36:53;;;;;;;10.50;4.97;;;;;;;14.57;64.55;100293.53;5069521;28;20555;-71
2021/05/13 04:39:21;;;;;;;10.93;5.17;;;;;;;14.25;65.46;100249.66;5075894;28;20197;-71
2021/05/13 04:41:50;;;;;;;17.57;5.17;;;;;;;14.63;64.31;100299.38;5074812;28;20683;-71
2021/05/13 04:44:18;;;;;;;11.07;5.20;;;;;;;14.47;65.14;100294.53;5070971;28;20759;-68
2021/05/13 04:46:49;;;;;;;7.17;4.37;;;;;;;14.55;64.81;100290.13;5071445;28;20200;-69
2021/05/13 04:49:17;;;;;;;12.93;5.17;;;;;;;14.64;65.22;100290.25;5068786;28;20295;-68
2021/05/13 04:51:46;;;;;;;10.50;5.40;;;;;;;14.67;64.66;100281.88;5068724;28;20274;-69
2021/05/13 04:54:17;;;;;;;9.17;5.00;;;;;;;14.87;64.51;100278.19;5071461;28;20221;-69
2021/05/13 04:56:45;;;;;;;11.53;4.70;;;;;;;15.11;63.96;100275.03;5069645;28;20587;-68
2021/05/13 04:59:13;;;;;;;7.53;4.70;;;;;;;15.28;63.70;100282.38;5066399;28;20298;-68
2021/05/13 05:01:41;;;;;;;8.47;4.60;;;;;;;15.39;62.58;100289.50;5072282;28;20201;-69
2021/05/13 05:04:09;;;;;;;8.53;5.13;;;;;;;15.65;62.72;100284.34;5066192;28;20201;-69
2021/05/13 05:06:37;;;;;;;8.03;4.73;;;;;;;15.80;61.99;100285.56;5070068;28;20204;-69
2021/05/13 05:09:06;;;;;;;8.77;5.17;;;;;;;15.86;60.79;100279.53;5068897;28;20194;-69
2021/05/13 05:11:33;;;;;;;9.13;4.57;;;;;;;16.15;60.21;100279.38;5080338;28;20231;-69
2021/05/13 05:14:02;;;;;;;10.37;5.30;;;;;;;16.29;60.48;100270.75;5066154;28;20217;-69
2021/05/13 05:16:29;;;;;;;8.37;5.07;;;;;;;16.39;59.78;100270.69;5069896;28;20228;-68
2021/05/13 05:18:57;;;;;;;12.07;5.00;;;;;;;16.53;59.95;100280.13;5073062;28;20326;-69
2021/05/13 05:21:26;;;;;;;13.50;5.47;;;;;;;16.46;59.63;100275.34;5070027;28;20204;-69
2021/05/13 05:23:53;;;;;;;8.17;4.83;;;;;;;16.28;59.75;100244.66;5076665;28;20573;-71
2021/05/13 05:26:21;;;;;;;9.30;4.90;;;;;;;16.71;58.30;100272.91;5061055;28;20205;-71
2021/05/13 05:28:49;;;;;;;7.83;4.97;;;;;;;16.79;57.96;100280.25;5067233;28;20264;-71
2021/05/13 05:31:17;;;;;;;7.63;4.73;;;;;;;16.88;57.60;100271.22;5068563;28;20575;-67
2021/05/13 05:33:44;;;;;;;7.07;4.90;;;;;;;16.97;57.80;100262.97;5065180;28;20216;-67
2021/05/13 05:36:12;;;;;;;9.30;4.87;;;;;;;17.01;57.84;100258.94;5066057;28;20632;-67
2021/05/13 05:38:41;;;;;;;10.53;4.90;;;;;;;17.06;57.12;100266.59;5065322;28;20562;-68
2021/05/13 05:41:08;;;;;;;8.57;4.97;;;;;;;17.13;57.42;100264.94;5065860;28;20685;-68
2021/05/13 05:43:36;;;;;;;8.37;5.30;;;;;;;17.14;56.50;100260.38;5064344;28;20190;-67
2021/05/13 05:46:03;;;;;;;10.17;5.53;;;;;;;17.08;57.31;100248.28;5063141;28;20846;-68
2021/05/13 05:48:32;;;;;;;10.63;5.00;;;;;;;17.35;56.91;100252.72;5064644;28;20197;-67
2021/05/13 05:50:59;;;;;;;9.60;5.63;;;;;;;17.45;56.86;100271.63;5062827;28;20321;-68
2021/05/13 05:53:27;;;;;;;11.83;5.27;;;;;;;17.62;56.24;100262.56;5074921;28;20224;-68
2021/05/13 05:55:55;;;;;;;8.50;5.17;;;;;;;17.67;55.14;100261.09;5064881;28;20615;-68
2021/05/13 05:58:23;;;;;;;10.23;5.03;;;;;;;17.86;55.93;100264.59;5064519;28;20608;-68
2021/05/13 06:00:51;;;;;;;10.40;5.07;;;;;;;17.80;55.12;100243.53;5064529;28;20208;-67
2021/05/13 06:03:19;;;;;;;7.30;4.40;;;;;;;18.24;54.19;100264.06;5063583;28;20224;-68
2021/05/13 06:05:47;;;;;;;11.80;5.87;;;;;;;18.04;53.79;100267.22;5080419;28;20209;-68
2021/05/13 06:08:14;;;;;;;8.03;4.60;;;;;;;17.95;54.09;100258.19;5062533;28;20199;-68
2021/05/13 06:10:42;;;;;;;8.10;4.90;;;;;;;18.02;53.94;100275.53;5063821;28;20675;-68
2021/05/13 06:13:11;;;;;;;11.97;4.90;;;;;;;18.09;54.89;100276.59;5063591;28;20206;-69
2021/05/13 06:15:39;;;;;;;7.80;5.03;;;;;;;18.03;54.72;100279.09;5064226;28;20220;-68
2021/05/13 06:18:06;;;;;;;9.10;5.13;;;;;;;18.29;55.18;100266.28;5063675;28;20205;-68
2021/05/13 06:20:35;;;;;;;9.87;5.20;;;;;;;18.37;55.03;100273.59;5064795;28;21055;-68
2021/05/13 06:23:08;;;;;;;8.67;5.07;;;;;;;18.59;54.52;100278.44;5066379;28;20224;-68
2021/05/13 06:25:39;;;;;;;10.37;5.20;;;;;;;18.74;54.74;100271.38;5063555;28;20193;-69
2021/05/13 06:28:09;;;;;;;6.77;4.57;;;;;;;18.89;54.28;100271.53;5078441;28;20641;-68
2021/05/13 06:30:39;;;;;;;9.50;4.90;;;;;;;19.00;53.38;100275.81;5062928;28;20204;-68
2021/05/13 06:33:07;;;;;;;7.57;4.77;;;;;;;19.11;53.80;100278.19;5063245;28;20232;-69
2021/05/13 06:35:39;;;;;;;14.33;5.47;;;;;;;18.83;53.18;100273.06;5062934;28;20229;-68
2021/05/13 06:38:07;;;;;;;13.63;5.30;;;;;;;18.88;53.71;100275.28;5062896;28;20280;-68
2021/05/13 06:40:35;;;;;;;12.50;5.00;;;;;;;18.77;53.83;100270.16;5062771;28;20288;-68
2021/05/13 06:43:03;;;;;;;9.07;4.87;;;;;;;18.79;53.12;100271.69;5060805;28;20598;-69
2021/05/13 06:45:33;;;;;;;10.83;4.87;;;;;;;18.92;53.38;100282.91;5067576;28;20219;-67
2021/05/13 06:48:05;;;;;;;12.60;5.43;;;;;;;18.97;52.71;100273.41;5068690;28;20204;-69
2021/05/13 06:50:33;;;;;;;13.40;5.13;;;;;;;18.93;52.41;100276.47;5061384;28;20205;-68
2021/05/13 06:53:01;;;;;;;8.17;4.73;;;;;;;19.09;52.71;100274.78;5065220;28;20558;-69
2021/05/13 06:55:30;;;;;;;8.23;5.40;;;;;;;19.28;52.67;100268.97;5065058;28;20217;-69
2021/05/13 06:57:59;;;;;;;8.40;5.27;;;;;;;19.49;52.16;100266.56;5065657;28;20209;-78
2021/05/13 07:00:27;;;;;;;9.23;4.90;;;;;;;19.72;52.56;100265.84;5062310;28;20197;-69
2021/05/13 07:03:01;;;;;;;7.30;4.10;;;;;;;19.96;51.82;100267.66;5070725;28;20899;-69
2021/05/13 07:05:29;;;;;;;6.90;4.60;;;;;;;20.49;51.37;100266.03;5064053;28;20222;-70
2021/05/13 07:07:57;;;;;;;9.27;4.60;;;;;;;20.86;51.17;100277.06;5076319;28;20305;-70
2021/05/13 07:10:25;;;;;;;8.93;4.93;;;;;;;20.97;49.86;100273.06;5064937;28;20198;-69
2021/05/13 07:12:52;;;;;;;10.67;4.80;;;;;;;21.07;50.04;100269.03;5067439;28;20284;-69
2021/05/13 07:15:31;;;;;;;7.43;4.60;;;;;;;21.53;49.44;100270.88;5067110;28;20308;-69
2021/05/13 07:17:59;;;;;;;7.70;4.80;;;;;;;21.68;48.36;100272.56;5070943;28;20202;-68
2021/05/13 07:20:27;;;;;;;10.17;4.87;;;;;;;21.66;47.91;100274.63;5069389;28;20272;-69
2021/05/13 07:22:57;;;;;;;9.23;4.53;;;;;;;21.20;46.33;100268.44;5063743;28;20262;-69
2021/05/13 07:25:25;;;;;;;8.83;5.30;;;;;;;20.63;46.93;100271.59;5068085;28;20197;-69
2021/05/13 07:27:53;;;;;;;10.97;5.20;;;;;;;20.89;47.80;100275.84;5060939;28;20735;-69
2021/05/13 07:30:21;;;;;;;8.27;5.00;;;;;;;20.92;47.96;100261.84;5064903;28;20196;-69
2021/05/13 07:32:51;;;;;;;7.67;4.60;;;;;;;21.06;47.31;100271.94;5062437;28;20505;-69
2021/05/13 07:35:22;;;;;;;6.87;4.57;;;;;;;21.02;47.84;100278.81;5067572;28;20221;-69
2021/05/13 07:37:50;;;;;;;10.47;4.87;;;;;;;21.00;47.38;100268.06;5069926;28;20205;-69
2021/05/13 07:40:21;;;;;;;7.57;4.70;;;;;;;21.04;47.72;100277.59;5066146;28;20197;-69
2021/05/13 07:42:49;;;;;;;11.17;4.70;;;;;;;20.87;47.92;100280.66;5063406;28;20925;-67
2021/05/13 07:45:18;;;;;;;8.37;4.93;;;;;;;20.96;47.95;100244.06;5063593;28;20207;-72
2021/05/13 07:47:46;;;;;;;8.10;4.50;;;;;;;21.34;47.15;100273.09;5066128;28;20193;-70
2021/05/13 07:50:15;;;;;;;13.57;4.60;;;;;;;21.92;46.02;100284.28;5085459;28;20246;-71
2021/05/13 07:52:45;;;;;;;11.50;5.00;;;;;;;21.91;45.51;100274.38;5066628;28;20212;-71
2021/05/13 07:55:13;;;;;;;7.57;4.67;;;;;;;22.41;45.18;100279.06;5070219;28;20213;-67
2021/05/13 07:57:43;;;;;;;8.23;4.63;;;;;;;22.79;44.56;100281.59;5073366;28;20204;-70
2021/05/13 08:00:12;;;;;;;12.30;4.93;;;;;;;23.03;43.62;100281.25;5070452;28;20210;-67
2021/05/13 08:02:40;;;;;;;6.50;4.73;;;;;;;23.38;43.17;100275.84;5068460;28;20201;-68
2021/05/13 08:05:09;;;;;;;8.20;4.90;;;;;;;23.51;42.77;100276.78;5077378;28;20313;-67
2021/05/13 08:07:37;;;;;;;10.63;4.87;;;;;;;23.59;41.79;100273.09;5070035;28;20201;-68
2021/05/13 08:10:06;;;;;;;13.47;4.77;;;;;;;23.48;41.47;100284.56;5066925;28;20289;-67
2021/05/13 08:12:34;;;;;;;10.30;4.93;;;;;;;23.70;41.65;100282.66;5065081;28;20229;-68
2021/05/13 08:15:08;;;;;;;8.97;5.23;;;;;;;23.24;41.04;100297.66;5081718;28;20270;-68
2021/05/13 08:17:35;;;;;;;10.87;5.17;;;;;;;23.12;42.48;100281.94;5071651;28;20197;-68
2021/05/13 08:20:05;;;;;;;6.90;4.87;;;;;;;22.51;41.91;100265.91;5066456;28;20239;-68
2021/05/13 08:22:34;;;;;;;13.80;4.80;;;;;;;22.22;43.03;100291.44;5077299;28;20197;-68
2021/05/13 08:25:01;;;;;;;8.50;5.30;;;;;;;21.78;43.04;100288.72;5061184;28;20200;-69
2021/05/13 08:27:30;;;;;;;10.67;5.13;;;;;;;21.46;43.70;100267.19;5069900;28;20517;-68
2021/05/13 08:29:59;;;;;;;11.83;5.43;;;;;;;21.48;43.71;100284.25;5076839;28;20220;-67
2021/05/13 08:32:27;;;;;;;8.43;4.97;;;;;;;21.65;43.87;100278.41;5066480;28;20585;-66
2021/05/13 08:34:55;;;;;;;13.47;5.30;;;;;;;21.28;45.06;100284.75;5064849;28;20225;-68
2021/05/13 08:37:23;;;;;;;9.07;5.00;;;;;;;21.29;44.41;100255.56;5069185;28;20560;-68
2021/05/13 08:39:51;;;;;;;7.77;5.00;;;;;;;21.53;44.53;100269.00;5067457;28;20495;-69
2021/05/13 08:42:19;;;;;;;7.40;4.67;;;;;;;21.90;44.54;100289.94;5065382;28;20313;-69
2021/05/13 08:44:46;;;;;;;7.30;4.73;;;;;;;21.49;45.26;100283.22;5069922;28;20196;-73
2021/05/13 08:47:14;;;;;;;9.80;4.70;;;;;;;21.02;44.87;100278.81;5074804;28;20197;-73
2021/05/13 08:49:42;;;;;;;7.70;5.10;;;;;;;20.93;45.27;100282.66;5066524;28;20202;-72
2021/05/13 08:52:10;;;;;;;7.23;4.77;;;;;;;20.53;46.22;100287.34;5071043;28;20197;-72
2021/05/13 08:54:50;;;;;;;8.43;5.07;;;;;;;20.37;46.37;100287.41;5066172;28;20209;-71
2021/05/13 08:57:18;;;;;;;10.73;4.73;;;;;;;20.40;46.68;100287.06;5076846;28;20722;-71
2021/05/13 08:59:46;;;;;;;8.20;4.63;;;;;;;20.22;46.91;100283.75;5066743;28;20206;-69
2021/05/13 09:02:15;;;;;;;9.67;5.27;;;;;;;20.18;46.93;100258.69;5087955;28;20560;-68
2021/05/13 09:04:46;;;;;;;8.57;4.67;;;;;;;20.31;46.86;100283.50;5085097;28;20258;-71
2021/05/13 09:07:19;;;;;;;6.90;4.50;;;;;;;20.48;46.80;100281.56;5075171;28;20204;-71
2021/05/13 09:10:11;;;;;;;8.13;4.40;;;;;;;20.58;46.35;100284.94;5079323;28;20281;-71
2021/05/13 09:12:40;;;;;;;6.17;4.23;;;;;;;20.21;46.76;100277.44;5063181;28;20247;-71
2021/05/13 09:15:10;;;;;;;5.90;3.93;;;;;;;20.34;46.81;100279.56;5067173;28;20249;-70
2021/05/13 09:17:41;;;;;;;8.33;4.60;;;;;;;20.28;46.37;100278.41;5066468;28;20189;-71
2021/05/13 09:20:25;;;;;;;8.43;4.37;;;;;;;20.51;45.87;100275.78;5079016;28;20251;-71
2021/05/13 09:22:53;;;;;;;13.07;5.03;;;;;;;20.07;46.31;100284.47;5079713;28;20560;-68
2021/05/13 09:25:20;;;;;;;6.87;4.50;;;;;;;19.96;46.16;100279.41;5067612;28;20207;-69
2021/05/13 09:27:52;;;;;;;10.80;4.80;;;;;;;20.09;47.10;100279.69;5069988;28;20696;-70
2021/05/13 09:30:24;;;;;;;8.57;4.40;;;;;;;20.06;46.74;100279.19;5072887;28;20656;-69
2021/05/13 09:32:58;;;;;;;7.20;4.50;;;;;;;20.29;46.79;100280.13;5074017;28;20205;-69
2021/05/13 09:35:33;;;;;;;13.70;4.73;;;;;;;20.52;46.71;100279.34;5076908;28;20271;-69
2021/05/13 09:38:04;;;;;;;7.63;4.10;;;;;;;20.76;47.10;100277.28;5068840;28;20207;-70
2021/05/13 09:40:37;;;;;;;7.30;4.23;;;;;;;20.87;46.90;100273.31;5074543;28;20549;-70
2021/05/13 09:43:15;;;;;;;7.30;4.23;;;;;;;20.92;46.56;100273.59;5070807;28;20195;-69
2021/05/13 09:45:47;;;;;;;7.00;4.70;;;;;;;21.00;46.60;100259.88;5066691;28;20206;-69
2021/05/13 09:48:38;;;;;;;10.57;4.67;;;;;;;21.21;46.97;100272.00;5074670;28;20269;-70
2021/05/13 09:51:20;;;;;;;6.37;4.10;;;;;;;21.47;46.18;100274.34;5070383;28;20201;-70
2021/05/13 09:54:05;;;;;;;8.00;4.30;;;;;;;21.47;46.10;100282.56;5071079;28;20247;-69
2021/05/13 09:56:36;;;;;;;7.03;4.53;;;;;;;21.18;45.42;100281.41;5068074;28;20220;-69
2021/05/13 09:59:26;;;;;;;6.87;4.47;;;;;;;21.00;45.06;100280.88;5066343;28;20220;-69
2021/05/13 10:01:55;;;;;;;6.63;4.23;;;;;;;20.84;45.35;100289.22;5071805;28;20228;-69
2021/05/13 10:04:24;;;;;;;5.57;4.10;;;;;;;20.73;44.96;100299.50;5069098;28;20292;-69
2021/05/13 10:06:53;;;;;;;8.60;4.20;;;;;;;20.80;45.96;100296.88;5068754;28;20215;-69
2021/05/13 10:09:23;;;;;;;6.37;4.03;;;;;;;20.81;45.55;100287.66;5064920;28;20205;-72
2021/05/13 10:11:54;;;;;;;6.63;4.00;;;;;;;20.71;45.48;100282.44;5065502;28;20294;-72
2021/05/13 10:14:26;;;;;;;7.83;4.20;;;;;;;20.39;45.14;100293.53;5071989;28;20612;-72
2021/05/13 10:17:01;;;;;;;7.97;4.03;;;;;;;20.67;45.83;100285.72;5070169;28;20240;-72
2021/05/13 10:19:33;;;;;;;6.77;4.17;;;;;;;20.57;45.07;100293.31;5066140;28;20200;-71
2021/05/13 10:22:06;;;;;;;6.37;4.10;;;;;;;20.61;45.35;100279.13;5063705;28;20921;-72
2021/05/13 10:24:38;;;;;;;5.63;3.90;;;;;;;20.63;44.86;100300.75;5063716;28;20236;-72
2021/05/13 10:27:19;;;;;;;8.30;3.85;;;;;;;20.51;45.27;100283.97;5068304;28;20517;-72
2021/05/13 10:30:01;;;;;;;7.88;3.97;;;;;;;20.48;45.59;100273.38;5062764;28;20452;-72
2021/05/13 10:32:33;;;;;;;6.70;3.73;;;;;;;20.61;44.75;100291.91;5064768;28;20201;-73
2021/05/13 10:35:14;;;;;;;4.47;3.17;;;;;;;20.64;44.35;100297.00;5065727;28;20199;-74
2021/05/13 10:38:00;;;;;;;4.07;3.07;;;;;;;20.67;44.89;100294.75;5067118;28;20250;-73
2021/05/13 10:40:48;;;;;;;8.23;3.40;;;;;;;20.50;44.46;100289.56;5063359;28;20732;-74
2021/05/13 10:43:26;;;;;;;5.10;3.37;;;;;;;20.45;43.91;100287.38;5060730;28;20343;-74
2021/05/13 10:45:56;;;;;;;4.60;3.10;;;;;;;20.57;45.35;100296.88;5063221;28;20214;-75
2021/05/13 10:48:26;;;;;;;7.10;3.67;;;;;;;20.60;44.53;100285.59;5061102;28;20203;-72
2021/05/13 10:50:57;;;;;;;8.80;3.17;;;;;;;20.49;44.22;100291.44;5062599;28;20533;-74
2021/05/13 10:53:43;;;;;;;6.37;3.33;;;;;;;20.49;43.91;100283.25;5064571;28;20200;-73
2021/05/13 10:56:22;;;;;;;4.97;3.30;;;;;;;20.39;45.57;100285.34;5067330;28;20231;-73
2021/05/13 10:59:16;;;;;;;4.83;3.20;;;;;;;20.49;44.30;100280.53;5069318;28;20204;-73
2021/05/13 11:01:47;;;;;;;7.83;3.10;;;;;;;20.66;44.04;100284.88;5069987;28;20193;-73
2021/05/13 11:04:40;;;;;;;9.63;3.30;;;;;;;20.61;43.82;100286.44;5070813;28;20236;-73
2021/05/13 11:07:33;;;;;;;6.57;3.20;;;;;;;20.50;43.11;100271.31;5062917;28;20212;-72
2021/05/13 11:10:04;;;;;;;6.60;3.10;;;;;;;20.60;42.90;100288.34;5067018;28;20683;-73
2021/05/13 11:12:41;;;;;;;9.63;3.20;;;;;;;20.64;42.22;100281.47;5064200;28;20285;-73
2021/05/13 11:15:26;;;;;;;6.47;3.50;;;;;;;20.56;44.03;100277.97;5068332;28;20292;-73
2021/05/13 11:18:13;;;;;;;5.50;3.10;;;;;;;20.71;43.40;100282.44;5063604;28;20197;-71
2021/05/13 11:20:51;;;;;;;7.83;3.37;;;;;;;20.62;42.87;100286.28;5063738;28;20204;-73
2021/05/13 11:23:27;;;;;;;11.10;3.10;;;;;;;20.53;42.66;100281.91;5061532;28;20267;-72
2021/05/13 11:25:59;;;;;;;4.70;3.23;;;;;;;20.56;42.65;100280.69;5061262;28;20197;-72
2021/05/13 11:28:33;;;;;;;7.90;3.10;;;;;;;20.52;43.04;100276.63;5064194;28;20221;-70
2021/05/13 11:31:14;;;;;;;9.40;2.97;;;;;;;20.55;42.38;100279.84;5052628;28;20212;-70
2021/05/13 11:33:43;;;;;;;4.87;2.93;;;;;;;20.58;43.09;100278.63;5060818;28;20197;-70
2021/05/13 11:36:13;;;;;;;3.87;2.77;;;;;;;20.47;42.67;100282.59;5066512;28;20216;-72
2021/05/13 11:38:41;;;;;;;4.83;3.17;;;;;;;20.36;43.35;100236.59;5069593;28;20221;-71